createdAt,value
2019-03-15T00:01:28.613Z,12.63
2019-03-15T00:06:30.365Z,12.57
2019-03-15T00:11:32.102Z,11.90
2019-03-15T00:16:33.938Z,12.47
2019-03-15T00:21:35.658Z,11.97
2019-03-15T00:26:37.487Z,12.07
2019-03-15T00:31:39.345Z,11.30
2019-03-15T00:36:41.125Z,11.40
2019-03-15T00:41:42.853Z,11.20
2019-03-15T00:46:44.685Z,10.27
2019-03-15T00:51:46.461Z,10.17
2019-03-15T00:56:48.239Z,11.43
2019-03-15T01:01:49.952Z,10.77
2019-03-15T01:06:51.809Z,9.93
2019-03-15T01:11:53.539Z,10.50
2019-03-15T01:16:55.341Z,11.40
2019-03-15T01:21:57.077Z,11.63
2019-03-15T01:26:58.889Z,12.47
2019-03-15T01:32:00.618Z,13.07
2019-03-15T01:37:02.436Z,13.77
2019-03-15T01:42:04.149Z,14.27
2019-03-15T01:47:05.886Z,13.17
2019-03-15T01:52:07.662Z,13.83
2019-03-15T01:57:09.442Z,15.63
2019-03-15T02:02:11.158Z,16.50
2019-03-15T02:07:12.977Z,15.97
2019-03-15T02:12:14.786Z,15.77
2019-03-15T02:17:16.566Z,15.40
2019-03-15T02:22:18.298Z,15.40
2019-03-15T02:27:20.104Z,15.43
2019-03-15T02:32:21.843Z,15.43
2019-03-15T02:37:23.663Z,15.30
2019-03-15T02:42:28.405Z,14.20
2019-03-15T02:47:30.191Z,14.33
2019-03-15T02:52:31.926Z,14.27
2019-03-15T02:57:35.584Z,14.40
2019-03-15T03:02:37.212Z,14.97
2019-03-15T03:07:39.031Z,14.60
2019-03-15T03:12:40.798Z,13.83
2019-03-15T03:17:42.541Z,13.83
2019-03-15T03:22:44.345Z,13.83
2019-03-15T03:27:46.077Z,12.57
2019-03-15T03:32:47.919Z,11.97
2019-03-15T03:37:49.667Z,11.57
2019-03-15T03:42:51.451Z,10.83
2019-03-15T03:47:53.228Z,10.63
2019-03-15T03:52:55.011Z,10.97
2019-03-15T03:57:56.766Z,10.77
2019-03-15T04:02:59.625Z,9.83
2019-03-15T04:08:01.336Z,10.40
2019-03-15T04:13:03.166Z,9.83
2019-03-15T04:18:06.646Z,10.00
2019-03-15T04:23:08.558Z,9.83
2019-03-15T04:28:10.293Z,10.17
2019-03-15T04:33:12.110Z,9.20
2019-03-15T04:38:13.891Z,8.27
2019-03-15T04:43:15.640Z,9.37
2019-03-15T04:48:17.428Z,9.90
2019-03-15T04:53:19.202Z,9.00
2019-03-15T04:58:20.925Z,9.70
2019-03-15T05:03:22.744Z,9.37
2019-03-15T05:08:24.537Z,9.97
2019-03-15T05:13:26.306Z,10.17
2019-03-15T05:18:28.030Z,9.80
2019-03-15T05:23:29.846Z,9.90
2019-03-15T05:28:31.571Z,9.40
2019-03-15T05:33:33.426Z,9.50
2019-03-15T05:38:35.326Z,11.27
2019-03-15T05:43:37.174Z,11.33
2019-03-15T05:48:38.910Z,10.40
2019-03-15T05:53:40.726Z,10.57
2019-03-15T05:58:42.457Z,11.17
2019-03-15T06:03:49.026Z,10.50
2019-03-15T06:08:47.818Z,10.67
2019-03-15T06:13:49.605Z,10.87
2019-03-15T06:18:51.340Z,9.17
2019-03-15T06:23:53.119Z,9.73
2019-03-15T06:28:54.842Z,8.77
2019-03-15T06:33:56.667Z,10.80
2019-03-15T06:38:59.279Z,11.30
2019-03-15T06:44:01.052Z,11.53
2019-03-15T06:49:02.780Z,11.30
2019-03-15T06:54:11.400Z,11.67
2019-03-15T06:59:08.165Z,11.40
2019-03-15T07:04:10.005Z,11.23
2019-03-15T07:09:11.737Z,12.33
2019-03-15T07:14:13.562Z,10.63
2019-03-15T07:19:25.549Z,10.07
2019-03-15T07:24:25.218Z,10.03
2019-03-15T07:29:22.502Z,9.53
2019-03-15T07:34:24.213Z,11.33
2019-03-15T07:39:26.715Z,11.47
2019-03-15T07:44:28.646Z,8.97
2019-03-15T07:49:30.382Z,7.13
2019-03-15T07:54:37.868Z,9.30
2019-03-15T07:59:35.695Z,7.47
2019-03-15T08:04:37.416Z,8.43
2019-03-15T08:09:39.248Z,8.07
2019-03-15T08:14:41.001Z,8.43
2019-03-15T08:19:42.788Z,6.00
2019-03-15T08:24:51.571Z,8.00
2019-03-15T08:29:48.078Z,6.77
2019-03-15T08:34:49.813Z,3.20
2019-03-15T08:39:51.641Z,4.30
2019-03-15T08:44:53.434Z,6.23
2019-03-15T08:49:55.188Z,10.13
2019-03-15T08:55:05.045Z,6.63
2019-03-15T09:00:00.510Z,3.93
2019-03-15T09:05:02.331Z,4.40
2019-03-15T09:10:04.166Z,3.87
2019-03-15T09:15:06.024Z,7.30
2019-03-15T09:20:07.887Z,9.50
2019-03-15T09:25:19.328Z,4.50
2019-03-15T09:30:23.305Z,3.43
2019-03-15T09:35:16.729Z,4.63
2019-03-15T09:40:18.489Z,7.40
2019-03-15T09:45:20.262Z,4.90
2019-03-15T09:50:33.933Z,2.83
2019-03-15T09:55:32.939Z,6.00
2019-03-15T10:00:29.191Z,5.40
2019-03-15T10:05:30.977Z,8.57
2019-03-15T10:10:32.731Z,5.37
2019-03-15T10:15:34.537Z,4.40
2019-03-15T10:20:36.293Z,1.50
2019-03-15T10:25:46.712Z,4.90
2019-03-15T10:30:41.681Z,5.50
2019-03-15T10:35:43.397Z,7.40
2019-03-15T10:40:45.227Z,6.57
2019-03-15T10:45:46.993Z,2.97
2019-03-15T10:50:48.741Z,7.93
2019-03-15T10:56:00.026Z,5.70
2019-03-15T11:00:54.019Z,6.70
2019-03-15T11:05:55.849Z,10.37
2019-03-15T11:10:57.578Z,9.27
2019-03-15T11:15:59.410Z,7.07
2019-03-15T11:21:01.176Z,4.97
2019-03-15T11:26:13.089Z,2.30
2019-03-15T11:31:06.476Z,2.90
2019-03-15T11:36:08.259Z,3.10
2019-03-15T11:41:09.987Z,2.37
2019-03-15T11:46:11.798Z,4.10
2019-03-15T11:51:13.521Z,3.07
2019-03-15T11:56:26.567Z,3.20
2019-03-15T12:01:18.792Z,2.60
2019-03-15T12:06:20.492Z,2.43
2019-03-15T12:11:22.215Z,2.00
2019-03-15T12:16:23.933Z,2.03
2019-03-15T12:21:25.659Z,2.50
2019-03-15T12:26:39.830Z,2.20
2019-03-15T12:31:30.995Z,2.50
2019-03-15T12:36:32.747Z,2.20
2019-03-15T12:41:34.490Z,2.30
2019-03-15T12:46:36.290Z,3.50
2019-03-15T12:51:38.014Z,3.63
2019-03-15T12:56:52.961Z,3.13
2019-03-15T13:01:43.266Z,3.97
2019-03-15T13:06:45.053Z,2.07
2019-03-15T13:11:46.782Z,2.63
2019-03-15T13:16:48.600Z,2.00
2019-03-15T13:21:50.330Z,1.80
2019-03-15T13:26:52.147Z,2.50
2019-03-15T13:31:53.856Z,2.33
2019-03-15T13:36:55.600Z,2.63
2019-03-15T13:41:57.469Z,2.30
2019-03-15T13:46:59.259Z,3.40
2019-03-15T13:52:00.978Z,2.97
2019-03-15T13:57:02.821Z,3.70
2019-03-15T14:02:07.509Z,2.47
2019-03-15T14:07:08.205Z,1.50
2019-03-15T14:12:09.928Z,2.30
2019-03-15T14:17:11.758Z,1.83
2019-03-15T14:22:13.471Z,2.10
2019-03-15T14:27:15.214Z,2.17
2019-03-15T14:32:16.943Z,2.93
2019-03-15T14:37:18.943Z,2.57
2019-03-15T14:42:20.793Z,3.70
2019-03-15T14:47:22.542Z,2.30
2019-03-15T14:52:24.308Z,3.50
2019-03-15T14:57:26.034Z,3.87
2019-03-15T15:02:27.862Z,4.50
2019-03-15T15:07:29.585Z,3.30
2019-03-15T15:12:31.411Z,3.07
2019-03-15T15:17:33.198Z,2.53
2019-03-15T15:22:34.970Z,2.23
2019-03-15T15:27:36.740Z,2.70
2019-03-15T15:32:38.531Z,3.83
2019-03-15T15:37:40.262Z,3.40
2019-03-15T15:42:42.068Z,4.13
2019-03-15T15:47:43.801Z,4.43
2019-03-15T15:52:45.614Z,5.07
2019-03-15T15:57:47.350Z,3.93
2019-03-15T16:02:49.192Z,4.77
2019-03-15T16:07:50.916Z,4.40
2019-03-15T16:12:52.720Z,4.20
2019-03-15T16:17:54.456Z,3.87
2019-03-15T16:22:56.278Z,3.87
2019-03-15T16:27:58.006Z,4.53
2019-03-15T16:32:59.839Z,4.47
2019-03-15T16:38:01.552Z,4.37
2019-03-15T16:43:03.380Z,4.20
2019-03-15T16:48:05.127Z,5.10
2019-03-15T16:53:06.940Z,6.17
2019-03-15T16:58:08.741Z,7.87
2019-03-15T17:03:10.492Z,9.23
2019-03-15T17:08:12.260Z,8.77
2019-03-15T17:13:13.984Z,7.87
2019-03-15T17:18:15.709Z,7.77
2019-03-15T17:23:17.493Z,7.83
2019-03-15T17:28:19.214Z,8.77
2019-03-15T17:33:24.885Z,8.37
2019-03-15T17:38:26.710Z,8.40
2019-03-15T17:43:28.492Z,8.43
2019-03-15T17:48:30.336Z,8.60
2019-03-15T17:53:32.149Z,9.10
2019-03-15T17:58:33.913Z,7.47
2019-03-15T18:03:35.773Z,7.63
2019-03-15T18:08:37.520Z,7.00
2019-03-15T18:13:39.269Z,3.20
2019-03-15T18:18:41.047Z,5.00
2019-03-15T18:23:42.882Z,5.17
2019-03-15T18:28:44.681Z,6.13
2019-03-15T18:33:46.799Z,3.97
2019-03-15T18:38:55.165Z,6.57
2019-03-15T18:43:56.910Z,6.53
2019-03-15T18:49:00.713Z,6.03
2019-03-15T18:54:02.413Z,8.10
2019-03-15T18:59:04.430Z,7.70
2019-03-15T19:04:08.068Z,7.53
2019-03-15T19:09:09.857Z,7.30
2019-03-15T19:14:14.195Z,8.43
2019-03-15T19:19:15.970Z,8.40
2019-03-15T19:24:17.685Z,9.00
2019-03-15T19:29:21.846Z,9.43
2019-03-15T19:34:23.900Z,10.93
2019-03-15T19:39:29.595Z,10.27
2019-03-15T19:44:36.704Z,10.33
2019-03-15T19:49:40.976Z,8.87
2019-03-15T19:54:42.789Z,9.30
2019-03-15T19:59:44.648Z,7.80
2019-03-15T20:04:47.257Z,8.50
2019-03-15T20:09:52.092Z,9.70
2019-03-15T20:14:54.252Z,7.67
2019-03-15T20:19:56.359Z,8.30
2019-03-15T20:24:58.825Z,8.20
2019-03-15T20:30:01.509Z,8.13
2019-03-15T20:35:04.532Z,8.43
2019-03-15T20:40:06.778Z,8.27
2019-03-15T20:45:11.290Z,8.70
2019-03-15T20:50:15.030Z,9.07
2019-03-15T20:55:16.970Z,5.80
2019-03-15T21:00:20.054Z,9.27
2019-03-15T21:05:24.432Z,8.30
2019-03-15T21:10:26.783Z,9.40
2019-03-15T21:15:29.269Z,8.87
2019-03-15T21:20:31.526Z,9.30
2019-03-15T21:25:34.703Z,9.23
2019-03-15T21:30:48.393Z,7.23
2019-03-15T21:35:50.746Z,8.63
2019-03-15T21:40:53.194Z,7.43
2019-03-15T21:45:57.327Z,9.37
2019-03-15T21:50:59.145Z,7.73
2019-03-15T21:56:00.913Z,8.90
2019-03-15T22:01:03.021Z,8.60
2019-03-15T22:06:04.837Z,7.63
2019-03-15T22:11:20.117Z,7.67
2019-03-15T22:16:10.334Z,8.83
2019-03-15T22:21:12.183Z,6.93
2019-03-15T22:26:13.930Z,6.80
2019-03-15T22:31:17.044Z,7.20
2019-03-15T22:36:19.045Z,6.30
2019-03-15T22:41:20.831Z,8.40
2019-03-15T22:46:22.630Z,7.40
2019-03-15T22:51:24.640Z,7.47
2019-03-15T22:56:26.421Z,5.67
2019-03-15T23:01:30.492Z,8.37
2019-03-15T23:06:31.751Z,9.90
2019-03-15T23:11:33.497Z,9.70
2019-03-15T23:16:35.373Z,3.50
2019-03-15T23:21:37.170Z,3.60
2019-03-15T23:26:38.931Z,2.90
2019-03-15T23:31:43.895Z,1.70
2019-03-15T23:36:44.328Z,1.50
2019-03-15T23:41:46.101Z,1.80
2019-03-15T23:46:47.881Z,2.33
2019-03-15T23:51:49.717Z,2.03
2019-03-15T23:56:51.586Z,2.03
